createdAt,value
2022-12-25T00:02:32.477Z,101055.00
2022-12-25T00:05:39.551Z,101061.81
2022-12-25T00:08:43.673Z,101070.38
2022-12-25T00:11:47.776Z,101078.00
2022-12-25T00:14:50.333Z,101069.56
2022-12-25T00:17:54.490Z,101083.19
2022-12-25T00:21:03.129Z,101083.41
2022-12-25T00:24:06.430Z,101084.81
2022-12-25T00:27:10.947Z,101080.75
2022-12-25T00:30:14.385Z,101071.03
2022-12-25T00:33:17.931Z,101075.59
2022-12-25T00:36:22.727Z,101095.00
2022-12-25T00:39:25.378Z,101099.91
2022-12-25T00:42:28.576Z,101099.31
2022-12-25T00:45:35.342Z,101106.97
2022-12-25T00:48:40.396Z,101103.69
2022-12-25T00:51:43.058Z,101105.38
2022-12-25T00:54:46.184Z,101111.41
2022-12-25T00:57:50.419Z,101117.59
2022-12-25T01:00:53.529Z,101117.19
2022-12-25T01:03:56.322Z,101122.03
2022-12-25T01:06:59.776Z,101133.06
2022-12-25T01:10:23.587Z,101118.50
2022-12-25T01:13:27.144Z,101117.50
2022-12-25T01:16:30.817Z,101113.22
2022-12-25T01:19:33.857Z,101116.72
2022-12-25T01:22:38.358Z,101122.78
2022-12-25T01:25:41.313Z,101120.81
2022-12-25T01:28:44.211Z,101124.19
2022-12-25T01:31:48.802Z,101123.91
2022-12-25T01:34:55.858Z,101122.91
2022-12-25T01:37:59.808Z,101121.84
2022-12-25T01:41:02.565Z,101113.69
2022-12-25T01:44:29.499Z,101119.56
2022-12-25T01:47:32.606Z,101134.00
2022-12-25T01:50:39.564Z,101141.59
2022-12-25T01:53:42.095Z,101138.37
2022-12-25T01:56:48.082Z,101143.94
2022-12-25T01:59:52.306Z,101135.47
2022-12-25T02:02:56.559Z,101149.00
2022-12-25T02:06:04.311Z,101142.63
2022-12-25T02:09:07.390Z,101139.75
2022-12-25T02:12:34.321Z,101133.50
2022-12-25T02:16:08.630Z,101141.06
2022-12-25T02:19:38.640Z,101144.38
2022-12-25T02:23:05.984Z,101142.66
2022-12-25T02:26:13.619Z,101146.16
2022-12-25T02:29:42.288Z,101150.53
2022-12-25T02:33:18.923Z,101153.03
2022-12-25T02:36:25.536Z,101156.03
2022-12-25T02:39:59.270Z,101147.88
2022-12-25T02:43:36.593Z,101154.91
2022-12-25T02:46:57.899Z,101155.50
2022-12-25T02:50:20.021Z,101161.88
2022-12-25T02:53:41.629Z,101163.38
2022-12-25T02:57:07.377Z,101162.16
2022-12-25T03:00:32.145Z,101169.72
2022-12-25T03:03:59.309Z,101178.19
2022-12-25T03:07:10.130Z,101183.75
2022-12-25T03:10:33.878Z,101192.09
2022-12-25T03:13:40.004Z,101190.09
2022-12-25T03:16:52.337Z,101188.19
2022-12-25T03:20:13.990Z,101199.03
2022-12-25T03:23:40.618Z,101205.88
2022-12-25T03:26:57.070Z,101213.22
2022-12-25T03:30:18.598Z,101220.44
2022-12-25T03:34:18.229Z,101217.53
2022-12-25T03:37:44.290Z,101217.44
2022-12-25T03:41:14.994Z,101220.91
2022-12-25T03:44:48.521Z,101220.00
2022-12-25T03:48:13.567Z,101225.97
2022-12-25T03:51:39.287Z,101238.09
2022-12-25T03:55:02.651Z,101239.69
2022-12-25T03:58:23.801Z,101236.87
2022-12-25T04:01:50.043Z,101239.25
2022-12-25T04:05:12.518Z,101237.47
2022-12-25T04:08:34.009Z,101225.94
2022-12-25T04:12:02.049Z,101227.19
2022-12-25T04:15:24.755Z,101228.56
2022-12-25T04:18:46.623Z,101237.78
2022-12-25T04:22:08.663Z,101233.19
2022-12-25T04:25:30.420Z,101225.12
2022-12-25T04:28:52.340Z,101223.13
2022-12-25T04:32:14.619Z,101220.44
2022-12-25T04:35:35.720Z,101229.66
2022-12-25T04:38:40.280Z,101235.50
2022-12-25T04:41:46.004Z,101241.88
2022-12-25T04:44:50.518Z,101235.50
2022-12-25T04:47:53.321Z,101235.84
2022-12-25T04:50:57.264Z,101232.16
2022-12-25T04:54:00.453Z,101238.78
2022-12-25T04:57:04.034Z,101224.66
2022-12-25T05:00:09.055Z,101233.63
2022-12-25T05:03:12.283Z,101229.94
2022-12-25T05:06:15.209Z,101228.81
2022-12-25T05:09:21.851Z,101233.53
2022-12-25T05:12:26.579Z,101236.69
2022-12-25T05:15:30.643Z,101226.13
2022-12-25T05:18:33.904Z,101234.22
2022-12-25T05:21:37.283Z,101237.09
2022-12-25T05:24:39.844Z,101232.84
2022-12-25T05:27:42.662Z,101246.41
2022-12-25T05:30:45.835Z,101252.47
2022-12-25T05:33:51.580Z,101249.22
2022-12-25T05:36:54.125Z,101256.28
2022-12-25T05:39:59.819Z,101257.16
2022-12-25T05:43:02.757Z,101250.66
2022-12-25T05:46:07.479Z,101249.66
2022-12-25T05:49:10.542Z,101258.06
2022-12-25T05:52:19.590Z,101259.53
2022-12-25T05:55:22.832Z,101269.72
2022-12-25T05:58:28.623Z,101266.91
2022-12-25T06:01:33.296Z,101270.72
2022-12-25T06:04:37.604Z,101260.87
2022-12-25T06:07:40.628Z,101260.31
2022-12-25T06:10:43.853Z,101270.72
2022-12-25T06:13:52.875Z,101266.69
2022-12-25T06:16:56.615Z,101264.22
2022-12-25T06:20:00.774Z,101268.91
2022-12-25T06:23:10.350Z,101271.03
2022-12-25T06:26:17.135Z,101273.91
2022-12-25T06:29:20.342Z,101266.16
2022-12-25T06:32:25.243Z,101262.19
2022-12-25T06:35:28.401Z,101265.31
2022-12-25T06:38:31.791Z,101274.34
2022-12-25T06:41:35.911Z,101282.19
2022-12-25T06:44:41.288Z,101269.88
2022-12-25T06:47:44.367Z,101297.13
2022-12-25T06:50:55.200Z,101294.53
2022-12-25T06:54:04.788Z,101292.75
2022-12-25T06:57:10.006Z,101302.56
2022-12-25T07:00:15.971Z,101303.41
2022-12-25T07:03:30.280Z,101297.59
2022-12-25T07:06:35.591Z,101302.53
2022-12-25T07:09:43.306Z,101295.00
2022-12-25T07:12:54.647Z,101300.44
2022-12-25T07:16:05.516Z,101305.94
2022-12-25T07:19:12.284Z,101304.69
2022-12-25T07:22:19.285Z,101297.09
2022-12-25T07:25:25.394Z,101303.75
2022-12-25T07:28:34.022Z,101304.16
2022-12-25T07:31:40.499Z,101313.84
2022-12-25T07:34:46.477Z,101324.56
2022-12-25T07:37:51.080Z,101342.50
2022-12-25T07:40:57.815Z,101357.94
2022-12-25T07:44:02.377Z,101368.44
2022-12-25T07:47:15.008Z,101371.06
2022-12-25T07:50:19.112Z,101367.84
2022-12-25T07:53:32.778Z,101374.38
2022-12-25T07:56:35.945Z,101378.75
2022-12-25T07:59:51.565Z,101376.63
2022-12-25T08:03:02.372Z,101386.41
2022-12-25T08:06:13.941Z,101391.72
2022-12-25T08:09:24.491Z,101393.44
2022-12-25T08:12:27.645Z,101391.81
2022-12-25T08:15:32.521Z,101399.00
2022-12-25T08:18:45.185Z,101395.47
2022-12-25T08:21:49.751Z,101395.25
2022-12-25T08:24:57.082Z,101408.34
2022-12-25T08:28:07.689Z,101400.94
2022-12-25T08:31:20.677Z,101400.69
2022-12-25T08:34:27.802Z,101403.37
2022-12-25T08:37:39.264Z,101405.47
2022-12-25T08:40:51.238Z,101403.44
2022-12-25T08:43:54.830Z,101401.19
2022-12-25T08:47:00.416Z,101397.88
2022-12-25T08:50:07.952Z,101400.72
2022-12-25T08:53:10.772Z,101404.22
2022-12-25T08:56:15.304Z,101401.12
2022-12-25T08:59:22.275Z,101403.81
2022-12-25T09:02:32.271Z,101398.81
2022-12-25T09:05:40.308Z,101396.72
2022-12-25T09:08:50.937Z,101399.03
2022-12-25T09:11:55.723Z,101405.59
2022-12-25T09:15:07.068Z,101399.66
2022-12-25T09:18:12.139Z,101401.06
2022-12-25T09:21:17.516Z,101398.75
2022-12-25T09:24:25.264Z,101406.81
2022-12-25T09:27:29.585Z,101407.69
2022-12-25T09:30:32.856Z,101398.19
2022-12-25T09:33:36.756Z,101397.28
2022-12-25T09:36:39.386Z,101399.31
2022-12-25T09:39:46.781Z,101396.34
2022-12-25T09:42:49.678Z,101401.12
2022-12-25T09:45:52.742Z,101396.28
2022-12-25T09:49:22.163Z,101399.53
2022-12-25T09:52:44.321Z,101405.44
2022-12-25T09:56:25.787Z,101412.44
2022-12-25T09:59:30.555Z,101405.50
2022-12-25T10:03:04.328Z,101403.03
2022-12-25T10:06:23.231Z,101408.72
2022-12-25T10:09:55.273Z,101404.47
2022-12-25T10:13:17.123Z,101396.69
2022-12-25T10:16:57.439Z,101390.44
2022-12-25T10:20:41.412Z,101392.78
2022-12-25T10:23:58.329Z,101385.22
2022-12-25T10:27:12.505Z,101375.22
2022-12-25T10:30:24.314Z,101381.00
2022-12-25T10:33:31.355Z,101370.41
2022-12-25T10:36:37.907Z,101363.09
2022-12-25T10:39:47.017Z,101376.94
2022-12-25T10:43:10.474Z,101371.03
2022-12-25T10:46:20.413Z,101368.00
2022-12-25T10:49:39.948Z,101361.69
2022-12-25T10:53:17.092Z,101362.28
2022-12-25T10:56:24.086Z,101362.28
2022-12-25T10:59:58.757Z,101357.22
2022-12-25T11:03:23.693Z,101352.94
2022-12-25T11:06:30.736Z,101356.53
2022-12-25T11:09:38.384Z,101360.25
2022-12-25T11:12:51.429Z,101349.72
2022-12-25T11:16:09.785Z,101348.28
2022-12-25T11:19:39.317Z,101343.62
2022-12-25T11:22:45.857Z,101334.87
2022-12-25T11:26:07.304Z,101338.66
2022-12-25T11:29:48.276Z,101342.31
2022-12-25T11:32:56.446Z,101341.53
2022-12-25T11:36:21.299Z,101342.88
2022-12-25T11:39:30.175Z,101342.94
2022-12-25T11:42:50.151Z,101341.75
2022-12-25T11:46:05.367Z,101336.94
2022-12-25T11:49:15.688Z,101351.25
2022-12-25T11:52:23.975Z,101348.28
2022-12-25T11:55:58.141Z,101346.72
2022-12-25T11:59:18.089Z,101350.69
2022-12-25T12:02:30.287Z,101340.44
2022-12-25T12:05:45.598Z,101339.69
2022-12-25T12:09:20.219Z,101341.69
2022-12-25T12:12:49.220Z,101326.97
2022-12-25T12:15:58.536Z,101327.78
2022-12-25T12:19:34.857Z,101327.59
2022-12-25T12:22:39.032Z,101322.13
2022-12-25T12:25:46.335Z,101330.34
2022-12-25T12:28:51.800Z,101335.50
2022-12-25T12:32:06.528Z,101333.41
2022-12-25T12:35:19.187Z,101327.56
2022-12-25T12:38:30.283Z,101333.03
2022-12-25T12:41:48.610Z,101335.97
2022-12-25T12:44:59.322Z,101333.28
2022-12-25T12:48:15.771Z,101336.22
2022-12-25T12:51:34.583Z,101329.34
2022-12-25T12:55:03.146Z,101322.84
2022-12-25T12:58:25.279Z,101328.84
2022-12-25T13:01:28.228Z,101332.97
2022-12-25T13:04:56.203Z,101331.19
2022-12-25T13:08:31.368Z,101347.56
2022-12-25T13:11:40.932Z,101344.69
2022-12-25T13:14:49.998Z,101344.69
2022-12-25T13:18:08.284Z,101350.12
2022-12-25T13:21:19.561Z,101343.88
2022-12-25T13:24:30.471Z,101340.38
2022-12-25T13:27:47.194Z,101342.91
2022-12-25T13:31:19.519Z,101338.56
2022-12-25T13:34:33.814Z,101342.72
2022-12-25T13:37:37.966Z,101343.28
2022-12-25T13:41:09.733Z,101343.00
2022-12-25T13:44:27.045Z,101342.75
2022-12-25T13:47:39.467Z,101350.06
2022-12-25T13:50:48.772Z,101347.19
2022-12-25T13:54:08.948Z,101352.00
2022-12-25T13:57:21.625Z,101346.50
2022-12-25T14:00:56.222Z,101363.28
2022-12-25T14:04:00.326Z,101361.47
2022-12-25T14:07:27.278Z,101359.63
2022-12-25T14:10:39.448Z,101360.16
2022-12-25T14:13:54.825Z,101352.06
2022-12-25T14:17:01.369Z,101359.53
2022-12-25T14:20:09.350Z,101360.97
2022-12-25T14:23:16.388Z,101360.44
2022-12-25T14:26:31.302Z,101352.94
2022-12-25T14:29:51.297Z,101357.69
2022-12-25T14:32:58.420Z,101361.78
2022-12-25T14:36:06.781Z,101362.22
2022-12-25T14:39:29.828Z,101363.59
2022-12-25T14:42:35.619Z,101357.16
2022-12-25T14:45:43.300Z,101362.34
2022-12-25T14:49:06.389Z,101367.59
2022-12-25T14:52:23.653Z,101376.09
2022-12-25T14:55:47.185Z,101370.41
2022-12-25T14:58:59.518Z,101374.03
2022-12-25T15:02:03.355Z,101372.91
2022-12-25T15:05:25.923Z,101369.47
2022-12-25T15:08:35.763Z,101372.41
2022-12-25T15:11:42.348Z,101372.22
2022-12-25T15:14:47.949Z,101366.38
2022-12-25T15:17:54.216Z,101377.53
2022-12-25T15:21:01.820Z,101383.78
2022-12-25T15:24:13.243Z,101381.50
2022-12-25T15:27:21.499Z,101378.91
2022-12-25T15:30:35.674Z,101368.41
2022-12-25T15:33:44.387Z,101366.53
2022-12-25T15:36:57.553Z,101378.25
2022-12-25T15:40:12.044Z,101375.31
2022-12-25T15:43:40.272Z,101370.75
2022-12-25T15:46:47.440Z,101374.34
2022-12-25T15:50:10.203Z,101386.84
2022-12-25T15:53:27.434Z,101386.44
2022-12-25T15:56:37.304Z,101384.00
2022-12-25T15:59:44.811Z,101380.84
2022-12-25T16:02:53.812Z,101376.69
2022-12-25T16:06:03.179Z,101373.53
2022-12-25T16:09:13.873Z,101378.16
2022-12-25T16:12:18.612Z,101382.97
2022-12-25T16:15:32.619Z,101375.63
2022-12-25T16:18:47.151Z,101377.25
2022-12-25T16:22:00.306Z,101374.19
2022-12-25T16:25:19.004Z,101371.91
2022-12-25T16:28:27.521Z,101364.09
2022-12-25T16:31:40.698Z,101359.78
2022-12-25T16:35:00.148Z,101362.41
2022-12-25T16:38:14.233Z,101355.81
2022-12-25T16:41:28.600Z,101355.66
2022-12-25T16:44:36.639Z,101352.56
2022-12-25T16:47:41.132Z,101355.47
2022-12-25T16:50:52.294Z,101357.28
2022-12-25T16:53:57.572Z,101358.00
2022-12-25T16:57:02.482Z,101358.72
2022-12-25T17:00:20.288Z,101352.56
2022-12-25T17:03:40.277Z,101352.63
2022-12-25T17:06:50.399Z,101346.28
2022-12-25T17:09:57.590Z,101348.72
2022-12-25T17:13:02.232Z,101353.13
2022-12-25T17:16:26.225Z,101345.31
2022-12-25T17:19:40.286Z,101346.84
2022-12-25T17:22:45.571Z,101342.22
2022-12-25T17:25:51.248Z,101344.91
2022-12-25T17:28:58.331Z,101347.50
2022-12-25T17:32:02.067Z,101356.03
2022-12-25T17:35:08.910Z,101344.81
2022-12-25T17:38:17.529Z,101338.16
2022-12-25T17:41:23.451Z,101327.50
2022-12-25T17:44:37.293Z,101328.84
2022-12-25T17:47:44.326Z,101309.84
2022-12-25T17:50:53.647Z,101304.87
2022-12-25T17:54:07.266Z,101320.97
2022-12-25T17:57:22.339Z,101317.69
2022-12-25T18:00:30.889Z,101319.69
2022-12-25T18:03:41.386Z,101320.06
2022-12-25T18:06:59.417Z,101321.75
2022-12-25T18:10:09.287Z,101317.25
2022-12-25T18:13:16.477Z,101322.19
2022-12-25T18:16:23.287Z,101319.03
2022-12-25T18:19:36.126Z,101316.44
2022-12-25T18:22:51.194Z,101322.03
2022-12-25T18:26:02.078Z,101320.31
2022-12-25T18:29:13.180Z,101314.56
2022-12-25T18:32:27.869Z,101309.38
2022-12-25T18:35:45.308Z,101306.16
2022-12-25T18:38:53.305Z,101299.78
2022-12-25T18:42:20.443Z,101298.03
2022-12-25T18:45:43.231Z,101300.88
2022-12-25T18:48:48.128Z,101299.53
2022-12-25T18:51:53.830Z,101293.75
2022-12-25T18:55:20.572Z,101298.88
2022-12-25T18:58:26.532Z,101293.19
2022-12-25T19:01:34.393Z,101289.94
2022-12-25T19:04:44.479Z,101289.44
2022-12-25T19:07:57.315Z,101286.28
2022-12-25T19:11:13.304Z,101292.59
2022-12-25T19:14:19.324Z,101283.81
2022-12-25T19:17:31.838Z,101282.19
2022-12-25T19:20:41.663Z,101280.19
2022-12-25T19:23:52.289Z,101277.50
2022-12-25T19:27:17.714Z,101283.59
2022-12-25T19:30:23.529Z,101278.22
2022-12-25T19:33:36.481Z,101286.12
2022-12-25T19:36:46.908Z,101274.66
2022-12-25T19:39:52.800Z,101275.94
2022-12-25T19:43:10.138Z,101287.59
2022-12-25T19:46:28.271Z,101293.19
2022-12-25T19:49:37.339Z,101304.25
2022-12-25T19:52:52.289Z,101287.03
2022-12-25T19:55:59.284Z,101286.12
2022-12-25T19:59:15.803Z,101283.44
2022-12-25T20:02:20.435Z,101284.16
2022-12-25T20:05:28.332Z,101277.34
2022-12-25T20:08:38.589Z,101274.75
2022-12-25T20:11:43.738Z,101263.59
2022-12-25T20:14:51.358Z,101248.88
2022-12-25T20:17:58.248Z,101240.09
2022-12-25T20:21:09.376Z,101230.75
2022-12-25T20:24:20.286Z,101228.00
2022-12-25T20:27:24.556Z,101233.41
2022-12-25T20:30:44.307Z,101249.69
2022-12-25T20:33:50.593Z,101257.22
2022-12-25T20:36:58.245Z,101246.56
2022-12-25T20:40:05.584Z,101249.22
2022-12-25T20:43:09.898Z,101244.41
2022-12-25T20:46:22.869Z,101245.44
2022-12-25T20:49:32.510Z,101242.78
2022-12-25T20:52:37.648Z,101234.88
2022-12-25T20:55:47.623Z,101238.13
2022-12-25T20:59:02.341Z,101235.44
2022-12-25T21:02:34.059Z,101237.94
2022-12-25T21:05:49.986Z,101235.44
2022-12-25T21:09:01.843Z,101243.25
2022-12-25T21:12:07.445Z,101240.47
2022-12-25T21:15:19.374Z,101236.16
2022-12-25T21:18:25.271Z,101230.72
2022-12-25T21:21:32.058Z,101227.22
2022-12-25T21:24:36.047Z,101215.84
2022-12-25T21:27:41.104Z,101220.06
2022-12-25T21:30:45.483Z,101218.34
2022-12-25T21:33:56.429Z,101218.09
2022-12-25T21:37:07.984Z,101227.69
2022-12-25T21:40:16.641Z,101235.41
2022-12-25T21:43:28.240Z,101224.03
2022-12-25T21:46:33.243Z,101227.53
2022-12-25T21:49:56.116Z,101217.06
2022-12-25T21:53:02.451Z,101215.19
2022-12-25T21:56:08.228Z,101216.81
2022-12-25T21:59:21.741Z,101206.41
2022-12-25T22:02:26.607Z,101212.50
2022-12-25T22:05:52.220Z,101217.63
2022-12-25T22:09:00.647Z,101228.09
2022-12-25T22:12:31.874Z,101230.53
2022-12-25T22:15:56.356Z,101232.16
2022-12-25T22:19:20.247Z,101240.69
2022-12-25T22:22:26.448Z,101241.56
2022-12-25T22:25:38.760Z,101225.16
2022-12-25T22:28:44.018Z,101230.44
2022-12-25T22:31:56.188Z,101225.25
2022-12-25T22:35:04.224Z,101213.31
2022-12-25T22:38:07.935Z,101214.94
2022-12-25T22:41:13.439Z,101221.13
2022-12-25T22:44:18.111Z,101222.81
2022-12-25T22:47:22.220Z,101207.31
2022-12-25T22:50:27.416Z,101212.50
2022-12-25T22:53:32.422Z,101219.31
2022-12-25T22:56:35.791Z,101227.13
2022-12-25T22:59:40.159Z,101227.22
2022-12-25T23:02:44.575Z,101215.09
2022-12-25T23:05:56.116Z,101220.31
2022-12-25T23:09:02.067Z,101214.94
2022-12-25T23:12:06.572Z,101199.25
2022-12-25T23:15:09.961Z,101204.38
2022-12-25T23:18:35.934Z,101202.84
2022-12-25T23:22:00.920Z,101201.12
2022-12-25T23:25:53.313Z,101208.12
2022-12-25T23:29:15.147Z,101212.59
2022-12-25T23:32:22.694Z,101211.84
2022-12-25T23:35:27.881Z,101211.78
2022-12-25T23:38:31.118Z,101204.78
2022-12-25T23:41:35.488Z,101196.09
2022-12-25T23:44:38.402Z,101196.75
2022-12-25T23:47:44.157Z,101190.72
2022-12-25T23:50:50.226Z,101188.78
2022-12-25T23:53:53.359Z,101186.00
2022-12-25T23:56:57.712Z,101186.66
